createdAt,value
2018-12-17T00:01:29.498Z,101259.95
2018-12-17T00:03:57.805Z,101256.33
2018-12-17T00:06:26.142Z,101257.47
2018-12-17T00:08:54.513Z,101261.68
2018-12-17T00:11:22.882Z,101260.70
2018-12-17T00:13:51.253Z,101265.64
2018-12-17T00:16:19.563Z,101279.77
2018-12-17T00:18:47.845Z,101281.88
2018-12-17T00:21:16.277Z,101281.00
2018-12-17T00:23:44.624Z,101278.28
2018-12-17T00:26:13.346Z,101271.97
2018-12-17T00:28:41.674Z,101277.13
2018-12-17T00:31:10.696Z,101272.73
2018-12-17T00:33:39.022Z,101275.88
2018-12-17T00:36:07.422Z,101275.98
2018-12-17T00:38:35.744Z,101271.27
2018-12-17T00:41:04.622Z,101267.19
2018-12-17T00:43:33.554Z,101272.39
2018-12-17T00:46:01.897Z,101277.67
2018-12-17T00:48:30.420Z,101270.05
2018-12-17T00:50:58.942Z,101266.14
2018-12-17T00:53:27.245Z,101269.34
2018-12-17T00:55:55.584Z,101263.05
2018-12-17T00:58:23.906Z,101268.09
2018-12-17T01:00:52.189Z,101266.14
2018-12-17T01:03:20.499Z,101268.99
2018-12-17T01:05:48.962Z,101265.49
2018-12-17T01:08:17.251Z,101263.03
2018-12-17T01:10:45.580Z,101261.58
2018-12-17T01:13:13.885Z,101272.17
2018-12-17T01:15:42.190Z,101272.26
2018-12-17T01:18:10.589Z,101278.11
2018-12-17T01:20:38.935Z,101286.86
2018-12-17T01:23:07.208Z,101285.19
2018-12-17T01:25:35.536Z,101282.42
2018-12-17T01:28:04.209Z,101285.36
2018-12-17T01:30:33.326Z,101286.67
2018-12-17T01:33:01.653Z,101283.24
2018-12-17T01:35:29.987Z,101277.77
2018-12-17T01:37:58.364Z,101280.80
2018-12-17T01:40:26.823Z,101288.52
2018-12-17T01:42:55.297Z,101288.17
2018-12-17T01:45:23.628Z,101302.59
2018-12-17T01:47:51.916Z,101306.55
2018-12-17T01:50:21.618Z,101304.97
2018-12-17T01:52:50.031Z,101298.43
2018-12-17T01:55:18.380Z,101297.45
2018-12-17T01:57:46.705Z,101301.48
2018-12-17T02:00:15.040Z,101305.95
2018-12-17T02:02:43.357Z,101299.37
2018-12-17T02:05:11.669Z,101309.53
2018-12-17T02:07:39.984Z,101312.89
2018-12-17T02:10:08.350Z,101317.67
2018-12-17T02:12:36.744Z,101311.54
2018-12-17T02:15:06.101Z,101312.16
2018-12-17T02:17:34.497Z,101319.88
2018-12-17T02:20:04.406Z,101319.70
2018-12-17T02:22:32.777Z,101323.20
2018-12-17T02:25:01.067Z,101320.45
2018-12-17T02:27:29.423Z,101314.42
2018-12-17T02:29:57.757Z,101330.03
2018-12-17T02:32:26.069Z,101327.14
2018-12-17T02:34:54.539Z,101332.02
2018-12-17T02:37:22.851Z,101340.46
2018-12-17T02:39:51.173Z,101335.04
2018-12-17T02:42:19.550Z,101329.55
2018-12-17T02:44:47.925Z,101326.53
2018-12-17T02:47:16.252Z,101333.67
2018-12-17T02:49:44.641Z,101335.24
2018-12-17T02:52:12.962Z,101334.94
2018-12-17T02:54:42.018Z,101332.64
2018-12-17T02:57:10.569Z,101335.18
2018-12-17T02:59:38.869Z,101334.11
2018-12-17T03:02:07.351Z,101336.30
2018-12-17T03:04:35.744Z,101339.97
2018-12-17T03:07:04.144Z,101335.34
2018-12-17T03:09:32.508Z,101333.77
2018-12-17T03:12:00.952Z,101339.13
2018-12-17T03:14:29.421Z,101352.23
2018-12-17T03:16:57.776Z,101346.77
2018-12-17T03:19:26.446Z,101348.72
2018-12-17T03:21:54.725Z,101344.53
2018-12-17T03:24:23.006Z,101347.77
2018-12-17T03:26:51.389Z,101347.59
2018-12-17T03:29:19.765Z,101345.58
2018-12-17T03:31:48.449Z,101344.88
2018-12-17T03:34:16.870Z,101350.95
2018-12-17T03:36:45.212Z,101359.35
2018-12-17T03:39:13.613Z,101363.27
2018-12-17T03:41:42.080Z,101355.64
2018-12-17T03:44:10.416Z,101353.39
2018-12-17T03:46:38.743Z,101352.38
2018-12-17T03:49:07.085Z,101366.34
2018-12-17T03:51:35.397Z,101362.91
2018-12-17T03:54:03.731Z,101366.51
2018-12-17T03:56:32.087Z,101364.45
2018-12-17T03:59:00.476Z,101357.27
2018-12-17T04:01:28.999Z,101362.45
2018-12-17T04:03:57.427Z,101371.09
2018-12-17T04:06:25.829Z,101364.02
2018-12-17T04:08:54.187Z,101371.31
2018-12-17T04:11:22.560Z,101373.20
2018-12-17T04:13:50.868Z,101376.31
2018-12-17T04:16:19.206Z,101378.44
2018-12-17T04:18:47.570Z,101373.23
2018-12-17T04:21:15.910Z,101377.42
2018-12-17T04:23:44.238Z,101376.94
2018-12-17T04:26:12.992Z,101381.61
2018-12-17T04:28:41.321Z,101398.46
2018-12-17T04:31:09.646Z,101398.36
2018-12-17T04:33:38.047Z,101396.91
2018-12-17T04:36:06.381Z,101398.92
2018-12-17T04:38:34.666Z,101402.80
2018-12-17T04:41:02.962Z,101404.51
2018-12-17T04:43:31.294Z,101413.62
2018-12-17T04:45:59.604Z,101417.73
2018-12-17T04:48:28.029Z,101416.97
2018-12-17T04:50:56.329Z,101415.02
2018-12-17T04:53:24.828Z,101418.83
2018-12-17T04:55:53.292Z,101421.58
2018-12-17T04:58:21.599Z,101435.16
2018-12-17T05:00:49.891Z,101435.16
2018-12-17T05:03:18.200Z,101427.11
2018-12-17T05:05:46.560Z,101429.58
2018-12-17T05:08:15.279Z,101435.77
2018-12-17T05:10:44.261Z,101445.70
2018-12-17T05:13:12.546Z,101446.58
2018-12-17T05:15:40.882Z,101449.73
2018-12-17T05:18:09.194Z,101459.00
2018-12-17T05:20:37.476Z,101453.27
2018-12-17T05:23:05.940Z,101458.05
2018-12-17T05:25:34.289Z,101468.63
2018-12-17T05:28:02.617Z,101470.30
2018-12-17T05:30:30.992Z,101471.51
2018-12-17T05:33:00.389Z,101471.41
2018-12-17T05:35:28.692Z,101475.39
2018-12-17T05:37:57.044Z,101467.98
2018-12-17T05:40:25.348Z,101472.37
2018-12-17T05:42:53.724Z,101477.70
2018-12-17T05:45:22.017Z,101473.69
2018-12-17T05:47:50.350Z,101481.28
2018-12-17T05:50:18.649Z,101488.88
2018-12-17T05:52:46.967Z,101489.97
2018-12-17T05:55:15.675Z,101491.98
2018-12-17T05:57:43.959Z,101497.09
2018-12-17T06:00:12.348Z,101497.95
2018-12-17T06:02:40.721Z,101503.31
2018-12-17T06:05:09.075Z,101509.70
2018-12-17T06:07:37.357Z,101514.50
2018-12-17T06:10:05.874Z,101514.50
2018-12-17T06:12:34.243Z,101516.75
2018-12-17T06:15:02.529Z,101517.20
2018-12-17T06:17:30.993Z,101518.63
2018-12-17T06:19:59.348Z,101521.55
2018-12-17T06:22:27.669Z,101521.78
2018-12-17T06:24:56.026Z,101536.48
2018-12-17T06:27:24.311Z,101534.21
2018-12-17T06:29:52.618Z,101533.20
2018-12-17T06:32:20.945Z,101536.56
2018-12-17T06:34:49.233Z,101540.00
2018-12-17T06:37:17.564Z,101546.64
2018-12-17T06:39:45.967Z,101547.83
2018-12-17T06:42:14.252Z,101550.66
2018-12-17T06:44:42.548Z,101558.16
2018-12-17T06:47:10.894Z,101558.54
2018-12-17T06:49:39.192Z,101555.77
2018-12-17T06:52:07.676Z,101564.47
2018-12-17T06:54:36.151Z,101554.79
2018-12-17T06:57:04.502Z,101562.77
2018-12-17T06:59:32.825Z,101566.30
2018-12-17T07:02:01.637Z,101562.33
2018-12-17T07:04:29.979Z,101565.30
2018-12-17T07:06:58.257Z,101567.20
2018-12-17T07:09:26.584Z,101562.72
2018-12-17T07:11:54.930Z,101565.02
2018-12-17T07:14:23.222Z,101562.82
2018-12-17T07:16:51.579Z,101574.30
2018-12-17T07:19:19.875Z,101579.07
2018-12-17T07:21:48.217Z,101576.95
2018-12-17T07:24:16.620Z,101575.50
2018-12-17T07:26:44.908Z,101571.64
2018-12-17T07:29:13.225Z,101582.31
2018-12-17T07:31:41.530Z,101584.58
2018-12-17T07:34:09.837Z,101592.45
2018-12-17T07:36:38.164Z,101590.08
2018-12-17T07:39:08.288Z,101596.36
2018-12-17T07:41:37.049Z,101594.88
2018-12-17T07:44:05.342Z,101593.53
2018-12-17T07:46:33.990Z,101602.69
2018-12-17T07:49:02.362Z,101610.70
2018-12-17T07:51:30.681Z,101607.66
2018-12-17T07:53:58.990Z,101612.62
2018-12-17T07:56:27.265Z,101615.89
2018-12-17T08:01:30.177Z,101619.16
2018-12-17T08:03:58.473Z,101625.09
2018-12-17T08:06:26.795Z,101624.42
2018-12-17T08:08:55.553Z,101630.82
2018-12-17T08:11:23.873Z,101637.80
2018-12-17T08:13:52.269Z,101643.52
2018-12-17T08:16:20.584Z,101649.14
2018-12-17T08:18:49.828Z,101645.48
2018-12-17T08:21:18.369Z,101638.19
2018-12-17T08:23:46.677Z,101639.94
2018-12-17T08:26:15.175Z,101644.91
2018-12-17T08:28:43.486Z,101645.59
2018-12-17T08:31:12.253Z,101645.56
2018-12-17T08:33:40.565Z,101656.98
2018-12-17T08:36:08.927Z,101653.22
2018-12-17T08:38:37.314Z,101647.97
2018-12-17T08:41:05.622Z,101645.31
2018-12-17T08:43:33.953Z,101651.28
2018-12-17T08:46:02.334Z,101652.98
2018-12-17T08:48:30.674Z,101654.06
2018-12-17T08:50:59.021Z,101654.72
2018-12-17T08:53:27.696Z,101654.42
2018-12-17T08:55:56.039Z,101667.06
2018-12-17T08:58:24.861Z,101662.20
2018-12-17T09:00:53.200Z,101661.38
2018-12-17T09:03:21.551Z,101668.78
2018-12-17T09:05:49.834Z,101666.12
2018-12-17T09:08:18.174Z,101668.02
2018-12-17T09:10:46.522Z,101664.77
2018-12-17T09:13:14.833Z,101665.62
2018-12-17T09:15:43.504Z,101664.11
2018-12-17T09:18:11.857Z,101671.09
2018-12-17T09:20:40.183Z,101672.64
2018-12-17T09:23:08.587Z,101671.42
2018-12-17T09:25:36.913Z,101670.25
2018-12-17T09:28:05.209Z,101671.67
2018-12-17T09:30:33.650Z,101678.66
2018-12-17T09:33:01.955Z,101682.72
2018-12-17T09:35:30.323Z,101688.20
2018-12-17T09:37:58.729Z,101691.34
2018-12-17T09:40:27.159Z,101691.69
2018-12-17T09:42:55.640Z,101702.33
2018-12-17T09:45:23.957Z,101697.53
2018-12-17T09:47:52.321Z,101695.81
2018-12-17T09:50:20.648Z,101698.51
2018-12-17T09:52:49.030Z,101693.77
2018-12-17T09:55:17.351Z,101699.60
2018-12-17T09:57:45.672Z,101705.83
2018-12-17T10:00:14.102Z,101707.99
2018-12-17T10:02:42.481Z,101703.23
2018-12-17T10:05:10.886Z,101697.75
2018-12-17T10:07:43.067Z,101695.02
2018-12-17T10:10:11.402Z,101702.88
2018-12-17T10:12:39.697Z,101703.06
2018-12-17T10:15:08.095Z,101700.14
2018-12-17T10:17:36.410Z,101701.06
2018-12-17T10:20:05.922Z,101701.01
2018-12-17T10:22:34.499Z,101705.31
2018-12-17T10:25:02.850Z,101709.27
2018-12-17T10:27:31.238Z,101691.20
2018-12-17T10:29:59.611Z,101689.58
2018-12-17T10:32:27.911Z,101699.77
2018-12-17T10:34:56.228Z,101702.84
2018-12-17T10:37:24.583Z,101701.42
2018-12-17T10:39:52.914Z,101703.59
2018-12-17T10:42:21.219Z,101692.44
2018-12-17T10:44:49.906Z,101692.62
2018-12-17T10:47:18.237Z,101694.28
2018-12-17T10:49:46.583Z,101690.78
2018-12-17T10:52:14.919Z,101698.52
2018-12-17T10:54:43.249Z,101701.19
2018-12-17T10:57:11.556Z,101694.13
2018-12-17T10:59:39.945Z,101685.73
2018-12-17T11:02:10.603Z,101687.45
2018-12-17T11:04:40.841Z,101676.91
2018-12-17T11:07:09.290Z,101683.00
2018-12-17T11:09:37.645Z,101685.16
2018-12-17T11:12:06.016Z,101688.97
2018-12-17T11:14:34.414Z,101689.56
2018-12-17T11:17:02.742Z,101686.98
2018-12-17T11:19:31.085Z,101680.72
2018-12-17T11:21:59.535Z,101672.58
2018-12-17T11:24:27.918Z,101675.80
2018-12-17T11:26:56.237Z,101676.30
2018-12-17T11:29:25.032Z,101668.64
2018-12-17T11:31:53.344Z,101661.88
2018-12-17T11:34:21.661Z,101659.23
2018-12-17T11:36:50.076Z,101657.30
2018-12-17T11:39:18.390Z,101669.77
2018-12-17T11:41:46.687Z,101661.94
2018-12-17T11:44:15.021Z,101662.72
2018-12-17T11:46:44.404Z,101665.14
2018-12-17T11:49:12.954Z,101661.84
2018-12-17T11:51:41.398Z,101662.75
2018-12-17T11:54:09.722Z,101657.08
2018-12-17T11:56:46.525Z,101646.36
2018-12-17T11:59:14.857Z,101644.27
2018-12-17T12:01:43.194Z,101668.20
2018-12-17T12:04:11.548Z,101663.80
2018-12-17T12:06:39.879Z,101664.92
2018-12-17T12:09:08.219Z,101662.55
2018-12-17T12:11:37.014Z,101675.88
2018-12-17T12:14:05.298Z,101669.05
2018-12-17T12:16:33.639Z,101667.71
2018-12-17T12:19:02.073Z,101672.30
2018-12-17T12:21:30.396Z,101670.52
2018-12-17T12:23:58.674Z,101666.76
2018-12-17T12:26:27.029Z,101664.63
2018-12-17T12:28:55.345Z,101664.95
2018-12-17T12:31:23.634Z,101662.17
2018-12-17T12:33:52.299Z,101669.70
2018-12-17T12:36:20.589Z,101678.30
2018-12-17T12:38:48.948Z,101680.71
2018-12-17T12:41:17.270Z,101689.41
2018-12-17T12:43:45.632Z,101691.98
2018-12-17T12:46:14.002Z,101687.11
2018-12-17T12:48:42.424Z,101681.28
2018-12-17T12:51:10.737Z,101683.03
2018-12-17T12:53:39.050Z,101682.38
2018-12-17T12:56:07.829Z,101691.70
2018-12-17T12:58:36.129Z,101692.53
2018-12-17T13:01:07.591Z,101692.09
2018-12-17T13:03:35.195Z,101691.05
2018-12-17T13:06:03.481Z,101693.02
2018-12-17T13:08:31.793Z,101695.30
2018-12-17T13:11:00.121Z,101692.95
2018-12-17T13:13:29.181Z,101698.98
2018-12-17T13:15:57.485Z,101697.36
2018-12-17T13:18:25.953Z,101697.47
2018-12-17T13:20:54.265Z,101703.27
2018-12-17T13:23:22.680Z,101706.55
2018-12-17T13:25:51.112Z,101704.34
2018-12-17T13:28:19.432Z,101702.67
2018-12-17T13:30:47.850Z,101710.61
2018-12-17T13:33:16.223Z,101706.27
2018-12-17T13:35:44.552Z,101709.44
2018-12-17T13:38:12.857Z,101708.73
2018-12-17T13:40:41.247Z,101709.98
2018-12-17T13:43:09.589Z,101711.58
2018-12-17T13:45:37.865Z,101711.48
2018-12-17T13:48:06.214Z,101719.00
2018-12-17T13:50:36.480Z,101711.92
2018-12-17T13:53:11.103Z,101716.95
2018-12-17T13:55:39.417Z,101709.55
2018-12-17T13:58:07.792Z,101713.78
2018-12-17T14:00:36.258Z,101710.63
2018-12-17T14:03:04.632Z,101700.94
2018-12-17T14:05:33.007Z,101704.97
2018-12-17T14:08:01.333Z,101708.90
2018-12-17T14:10:35.211Z,101714.56
2018-12-17T14:13:03.631Z,101719.89
2018-12-17T14:15:37.435Z,101724.45
2018-12-17T14:18:07.857Z,101727.36
2018-12-17T14:20:41.760Z,101722.33
2018-12-17T14:23:10.105Z,101731.80
2018-12-17T14:25:38.405Z,101730.62
2018-12-17T14:28:06.710Z,101730.55
2018-12-17T14:30:35.074Z,101733.44
2018-12-17T14:33:03.396Z,101729.36
2018-12-17T14:35:31.685Z,101730.38
2018-12-17T14:38:03.520Z,101735.38
2018-12-17T14:40:32.504Z,101738.98
2018-12-17T14:43:00.857Z,101742.21
2018-12-17T14:45:29.220Z,101743.91
2018-12-17T14:47:57.544Z,101744.03
2018-12-17T14:50:25.883Z,101744.26
2018-12-17T14:52:54.216Z,101748.13
2018-12-17T14:55:22.543Z,101752.28
2018-12-17T14:57:50.850Z,101750.43
2018-12-17T15:00:19.838Z,101754.50
2018-12-17T15:02:48.149Z,101756.24
2018-12-17T15:05:16.465Z,101752.53
2018-12-17T15:07:44.757Z,101758.97
2018-12-17T15:10:13.080Z,101772.90
2018-12-17T15:12:41.357Z,101763.86
2018-12-17T15:15:10.862Z,101771.55
2018-12-17T15:17:39.137Z,101781.61
2018-12-17T15:20:09.957Z,101782.30
2018-12-17T15:22:38.442Z,101779.34
2018-12-17T15:25:08.746Z,101783.57
2018-12-17T15:27:37.101Z,101789.77
2018-12-17T15:30:05.922Z,101792.77
2018-12-17T15:32:34.367Z,101791.11
2018-12-17T15:35:02.695Z,101786.06
2018-12-17T15:37:31.055Z,101788.47
2018-12-17T15:39:59.338Z,101788.09
2018-12-17T15:42:27.736Z,101794.91
2018-12-17T15:44:56.520Z,101799.23
2018-12-17T15:47:24.826Z,101803.11
2018-12-17T15:49:53.200Z,101802.02
2018-12-17T15:52:21.544Z,101808.38
2018-12-17T15:54:49.960Z,101811.30
2018-12-17T15:57:18.596Z,101802.13
2018-12-17T15:59:46.924Z,101806.83
2018-12-17T16:02:15.259Z,101800.88
2018-12-17T16:04:43.557Z,101815.55
2018-12-17T16:07:11.990Z,101819.61
2018-12-17T16:09:40.345Z,101818.33
2018-12-17T16:12:08.700Z,101821.88
2018-12-17T16:14:37.025Z,101823.39
2018-12-17T16:17:05.364Z,101825.80
2018-12-17T16:19:33.706Z,101829.69
2018-12-17T16:22:02.051Z,101833.26
2018-12-17T16:24:30.369Z,101830.45
2018-12-17T16:26:58.689Z,101828.59
2018-12-17T16:29:27.775Z,101827.20
2018-12-17T16:31:57.393Z,101831.03
2018-12-17T16:34:26.248Z,101835.61
2018-12-17T16:36:54.646Z,101836.50
2018-12-17T16:39:22.973Z,101837.78
2018-12-17T16:41:51.292Z,101828.83
2018-12-17T16:44:19.625Z,101834.98
2018-12-17T16:46:48.084Z,101838.45
2018-12-17T16:49:16.400Z,101837.77
2018-12-17T16:51:45.340Z,101842.02
2018-12-17T16:54:13.644Z,101838.19
2018-12-17T16:56:42.011Z,101834.48
2018-12-17T16:59:10.346Z,101834.95
2018-12-17T17:01:38.641Z,101846.70
2018-12-17T17:04:06.965Z,101841.23
2018-12-17T17:06:35.370Z,101851.93
2018-12-17T17:09:05.401Z,101857.95
2018-12-17T17:11:33.800Z,101863.98
2018-12-17T17:14:02.535Z,101866.27
2018-12-17T17:16:30.850Z,101873.25
2018-12-17T17:18:59.170Z,101866.59
2018-12-17T17:21:27.575Z,101868.84
2018-12-17T17:23:55.932Z,101872.84
2018-12-17T17:26:24.263Z,101878.77
2018-12-17T17:28:52.572Z,101876.08
2018-12-17T17:31:21.357Z,101875.01
2018-12-17T17:33:49.696Z,101880.84
2018-12-17T17:36:18.117Z,101881.73
2018-12-17T17:38:46.430Z,101886.59
2018-12-17T17:41:14.774Z,101884.92
2018-12-17T17:43:43.102Z,101886.11
2018-12-17T17:46:11.435Z,101883.08
2018-12-17T17:48:39.806Z,101877.78
2018-12-17T17:51:08.239Z,101877.86
2018-12-17T17:53:36.553Z,101885.33
2018-12-17T17:56:04.933Z,101890.77
2018-12-17T17:58:33.556Z,101892.30
2018-12-17T18:01:01.875Z,101896.95
2018-12-17T18:03:30.281Z,101907.23
2018-12-17T18:06:00.383Z,101909.68
2018-12-17T18:08:29.062Z,101910.88
2018-12-17T18:10:57.375Z,101908.09
2018-12-17T18:13:25.785Z,101911.86
2018-12-17T18:15:54.079Z,101920.94
2018-12-17T18:18:22.549Z,101925.57
2018-12-17T18:20:51.061Z,101922.14
2018-12-17T18:23:19.423Z,101920.70
2018-12-17T18:25:47.767Z,101926.66
2018-12-17T18:28:16.152Z,101928.47
2018-12-17T18:30:44.540Z,101924.42
2018-12-17T18:33:12.868Z,101924.92
2018-12-17T18:35:41.267Z,101923.74
2018-12-17T18:38:09.584Z,101931.26
2018-12-17T18:40:38.633Z,101925.95
2018-12-17T18:43:07.068Z,101931.34
2018-12-17T18:45:35.463Z,101931.32
2018-12-17T18:48:04.114Z,101929.22
2018-12-17T18:50:32.529Z,101928.05
2018-12-17T18:53:00.838Z,101931.13
2018-12-17T18:55:29.209Z,101933.20
2018-12-17T18:57:57.590Z,101938.45
2018-12-17T19:00:25.963Z,101943.75
2018-12-17T19:02:54.278Z,101945.91
2018-12-17T19:05:22.712Z,101938.89
2018-12-17T19:07:51.066Z,101941.16
2018-12-17T19:10:19.383Z,101946.05
2018-12-17T19:12:47.710Z,101944.23
2018-12-17T19:15:16.063Z,101946.17
2018-12-17T19:17:44.355Z,101943.02
2018-12-17T19:20:21.171Z,101946.39
2018-12-17T19:22:49.547Z,101946.89
2018-12-17T19:25:18.466Z,101948.78
2018-12-17T19:27:47.253Z,101943.66
2018-12-17T19:30:15.604Z,101949.45
2018-12-17T19:32:43.947Z,101944.87
2018-12-17T19:35:12.323Z,101950.92
2018-12-17T19:37:40.657Z,101953.13
2018-12-17T19:40:09.502Z,101952.43
2018-12-17T19:42:38.484Z,101962.88
2018-12-17T19:45:07.143Z,101952.20
2018-12-17T19:47:35.463Z,101957.39
2018-12-17T19:50:06.349Z,101958.19
2018-12-17T19:52:34.704Z,101959.30
2018-12-17T19:55:03.048Z,101959.06
2018-12-17T19:57:31.404Z,101967.45
2018-12-17T19:59:59.710Z,101958.55
2018-12-17T20:02:28.033Z,101965.45
2018-12-17T20:04:56.385Z,101962.20
2018-12-17T20:07:24.734Z,101965.53
2018-12-17T20:09:53.007Z,101963.67
2018-12-17T20:12:21.769Z,101966.95
2018-12-17T20:14:50.064Z,101968.98
2018-12-17T20:17:18.397Z,101967.09
2018-12-17T20:19:46.817Z,101969.45
2018-12-17T20:22:15.132Z,101969.88
2018-12-17T20:24:43.441Z,101974.19
2018-12-17T20:27:11.857Z,101979.77
2018-12-17T20:29:40.164Z,101981.70
2018-12-17T20:32:08.488Z,101985.17
2018-12-17T20:34:37.233Z,101996.25
2018-12-17T20:37:05.572Z,101985.98
2018-12-17T20:39:33.903Z,101983.89
2018-12-17T20:42:02.341Z,101984.21
2018-12-17T20:44:30.694Z,101983.50
2018-12-17T20:46:59.043Z,101985.41
2018-12-17T20:49:27.773Z,101980.66
2018-12-17T20:51:56.109Z,101985.28
2018-12-17T20:54:24.781Z,101987.28
2018-12-17T20:56:53.312Z,101982.19
2018-12-17T20:59:21.645Z,101992.21
2018-12-17T21:01:49.971Z,101991.59
2018-12-17T21:04:18.339Z,101996.78
2018-12-17T21:06:49.804Z,101999.75
2018-12-17T21:09:17.010Z,102002.20
2018-12-17T21:11:45.425Z,101996.86
2018-12-17T21:14:13.730Z,102000.73
2018-12-17T21:16:42.986Z,102003.98
2018-12-17T21:19:11.518Z,102007.95
2018-12-17T21:21:40.779Z,101999.42
2018-12-17T21:24:09.177Z,101988.18
2018-12-17T21:26:37.548Z,101983.16
2018-12-17T21:29:05.995Z,101987.91
2018-12-17T21:31:34.394Z,101987.28
2018-12-17T21:34:02.745Z,101984.62
2018-12-17T21:36:31.098Z,101983.59
2018-12-17T21:38:59.496Z,101981.94
2018-12-17T21:41:28.011Z,101991.76
2018-12-17T21:43:56.322Z,101988.33
2018-12-17T21:46:24.806Z,101997.09
2018-12-17T21:48:53.157Z,101998.02
2018-12-17T21:54:11.966Z,101992.89
2018-12-17T21:56:40.359Z,101991.11
2018-12-17T21:59:08.729Z,102001.55
2018-12-17T22:01:37.300Z,101989.62
2018-12-17T22:04:05.685Z,101986.23
2018-12-17T22:06:33.990Z,101988.45
2018-12-17T22:09:02.382Z,101987.53
2018-12-17T22:11:30.801Z,101989.69
2018-12-17T22:13:59.300Z,101988.56
2018-12-17T22:16:28.529Z,101996.50
2018-12-17T22:18:56.967Z,102000.89
2018-12-17T22:21:25.325Z,102003.72
2018-12-17T22:23:53.746Z,102000.50
2018-12-17T22:26:22.099Z,102002.59
2018-12-17T22:28:50.463Z,102013.34
2018-12-17T22:31:18.976Z,102016.52
2018-12-17T22:33:47.329Z,102016.32
2018-12-17T22:36:15.663Z,102010.79
2018-12-17T22:38:43.986Z,102020.20
2018-12-17T22:41:12.403Z,102020.10
2018-12-17T22:43:40.711Z,102022.06
2018-12-17T22:46:09.376Z,102018.75
2018-12-17T22:48:37.726Z,102022.63
2018-12-17T22:51:06.164Z,102029.16
2018-12-17T22:53:34.515Z,102023.00
2018-12-17T22:56:02.825Z,102028.77
2018-12-17T22:58:31.187Z,102021.56
2018-12-17T23:00:59.607Z,102024.95
2018-12-17T23:03:27.934Z,102023.08
2018-12-17T23:05:56.326Z,102026.36
2018-12-17T23:08:25.101Z,102025.66
2018-12-17T23:11:11.278Z,102035.29
2018-12-17T23:13:57.214Z,102029.38
2018-12-17T23:16:43.380Z,102020.86
2018-12-17T23:19:11.075Z,102021.28
2018-12-17T23:21:39.443Z,102020.19
2018-12-17T23:24:07.791Z,102033.50
2018-12-17T23:26:36.702Z,102030.16
2018-12-17T23:29:05.100Z,102023.70
2018-12-17T23:31:33.396Z,102024.94
2018-12-17T23:34:02.627Z,102020.88
2018-12-17T23:36:31.154Z,102008.95
2018-12-17T23:38:59.493Z,102011.56
2018-12-17T23:41:27.851Z,102014.94
2018-12-17T23:43:56.176Z,102010.32
2018-12-17T23:46:24.471Z,102010.14
2018-12-17T23:48:53.016Z,102013.55
2018-12-17T23:51:21.347Z,102006.55
2018-12-17T23:53:49.649Z,102009.87
2018-12-17T23:56:18.048Z,102015.05
2018-12-17T23:58:46.447Z,102012.05
